aviador You're here:

UKOO Decoded Metar

ODESSA in UKRAINE
Report Time2018-06-24 20:00:00
UTC Time2018-06-24 20:19:09
Flight Rules vfr VFR
WindCalm
Visibility9999 m
Phenomena:N/A
Clouds:N/A
Expected CloudBase > 4,800 ft AGL from Temp-Dew spread
CeilingNone
Temp18°C (ISA +3)
Dew Point06°C (46% RH)
AAT17.1°C
QNH1017 hPa
Density Alt489 ft
Elevation115 ft
Report Wrong Elevation
Raw Report
METAR UKOO 242000Z 00000MPS CAVOK 18/06 Q1017 R16/090060 NOSIG=

Extra information for UKOO:More info

Metar Taf Metar & Taf Last 4 Metars F.Rules Stats Wind Profile Meteogram Temp Stats Airport Information Weather charts Add Link Nearby VenuesMetar ALERT Operation Metar Decoded Social comments